createdAt,value
2022-08-31T00:01:36.882Z,4.70
2022-08-31T00:04:07.458Z,4.67
2022-08-31T00:06:36.120Z,4.63
2022-08-31T00:09:04.905Z,4.93
2022-08-31T00:11:37.920Z,4.80
2022-08-31T00:14:07.780Z,5.17
2022-08-31T00:16:41.744Z,4.40
2022-08-31T00:19:11.811Z,4.50
2022-08-31T00:21:40.333Z,4.33
2022-08-31T00:24:08.843Z,4.73
2022-08-31T00:26:37.201Z,4.50
2022-08-31T00:29:05.753Z,5.10
2022-08-31T00:31:34.138Z,4.40
2022-08-31T00:34:02.712Z,4.43
2022-08-31T00:36:32.758Z,4.23
2022-08-31T00:39:01.132Z,4.20
2022-08-31T00:41:30.856Z,4.37
2022-08-31T00:44:00.746Z,4.00
2022-08-31T00:46:31.162Z,4.17
2022-08-31T00:49:02.491Z,3.97
2022-08-31T00:51:33.856Z,4.03
2022-08-31T00:54:02.235Z,3.73
2022-08-31T00:56:31.502Z,3.83
2022-08-31T00:59:00.183Z,4.07
2022-08-31T01:01:30.508Z,3.73
2022-08-31T01:03:59.238Z,3.90
2022-08-31T01:06:27.602Z,4.23
2022-08-31T01:08:57.872Z,4.30
2022-08-31T01:11:26.149Z,4.20
2022-08-31T01:13:54.540Z,4.30
2022-08-31T01:16:26.761Z,5.10
2022-08-31T01:18:55.469Z,4.00
2022-08-31T01:21:29.757Z,4.57
2022-08-31T01:24:00.772Z,4.57
2022-08-31T01:26:31.461Z,4.33
2022-08-31T01:29:01.919Z,4.63
2022-08-31T01:31:31.612Z,4.37
2022-08-31T01:34:00.090Z,4.63
2022-08-31T01:36:28.662Z,4.77
2022-08-31T01:38:57.318Z,4.80
2022-08-31T01:41:28.376Z,4.73
2022-08-31T01:43:58.264Z,4.27
2022-08-31T01:46:26.701Z,4.73
2022-08-31T01:48:55.313Z,4.70
2022-08-31T01:51:23.713Z,4.77
2022-08-31T01:53:52.415Z,5.50
2022-08-31T01:56:22.962Z,5.53
2022-08-31T01:58:53.163Z,5.57
2022-08-31T02:01:33.837Z,5.50
2022-08-31T02:04:03.814Z,6.17
2022-08-31T02:06:32.775Z,6.90
2022-08-31T02:09:01.556Z,6.30
2022-08-31T02:11:29.772Z,6.83
2022-08-31T02:13:59.578Z,6.57
2022-08-31T02:16:28.076Z,7.43
2022-08-31T02:18:56.383Z,7.37
2022-08-31T02:21:24.961Z,7.37
2022-08-31T02:23:53.293Z,7.53
2022-08-31T02:26:22.299Z,7.07
2022-08-31T02:28:50.673Z,8.00
2022-08-31T02:31:22.100Z,8.63
2022-08-31T02:33:50.391Z,8.37
2022-08-31T02:36:18.817Z,8.80
2022-08-31T02:38:48.438Z,8.77
2022-08-31T02:41:17.786Z,8.37
2022-08-31T02:43:46.120Z,9.27
2022-08-31T02:46:15.076Z,9.90
2022-08-31T02:48:45.357Z,10.73
2022-08-31T02:51:14.260Z,11.47
2022-08-31T02:53:42.557Z,10.67
2022-08-31T02:56:11.390Z,11.73
2022-08-31T02:58:40.277Z,10.60
2022-08-31T03:01:08.812Z,11.10
2022-08-31T03:03:37.911Z,11.37
2022-08-31T03:06:08.265Z,12.60
2022-08-31T03:08:36.788Z,15.30
2022-08-31T03:11:05.278Z,12.73
2022-08-31T03:13:34.612Z,12.53
2022-08-31T03:16:04.132Z,13.60
2022-08-31T03:18:33.323Z,12.57
2022-08-31T03:21:02.595Z,12.13
2022-08-31T03:23:32.492Z,13.00
2022-08-31T03:26:01.529Z,11.40
2022-08-31T03:28:29.921Z,11.13
2022-08-31T03:30:58.304Z,10.77
2022-08-31T03:33:26.783Z,9.87
2022-08-31T03:35:55.195Z,8.13
2022-08-31T03:38:23.502Z,7.80
2022-08-31T03:40:53.283Z,8.13
2022-08-31T03:43:21.741Z,8.03
2022-08-31T03:45:50.392Z,7.57
2022-08-31T03:48:20.148Z,7.90
2022-08-31T03:50:48.791Z,8.40
2022-08-31T03:53:22.398Z,6.83
2022-08-31T03:55:54.087Z,7.77
2022-08-31T03:58:22.399Z,7.73
2022-08-31T04:00:51.174Z,8.50
2022-08-31T04:03:19.763Z,9.77
2022-08-31T04:05:48.406Z,11.03
2022-08-31T04:08:16.923Z,10.13
2022-08-31T04:10:45.663Z,8.90
2022-08-31T04:13:15.542Z,8.33
2022-08-31T04:15:43.933Z,9.70
2022-08-31T04:18:14.493Z,8.97
2022-08-31T04:20:42.817Z,8.23
2022-08-31T04:23:11.365Z,8.07
2022-08-31T04:25:40.247Z,7.83
2022-08-31T04:28:09.329Z,7.07
2022-08-31T04:30:44.164Z,7.73
2022-08-31T04:33:12.657Z,7.20
2022-08-31T04:35:41.322Z,7.10
2022-08-31T04:38:10.244Z,7.13
2022-08-31T04:40:40.462Z,6.87
2022-08-31T04:43:09.276Z,7.00
2022-08-31T04:45:45.172Z,7.33
2022-08-31T04:48:14.547Z,7.00
2022-08-31T04:50:43.289Z,6.33
2022-08-31T04:53:11.919Z,6.73
2022-08-31T04:55:41.335Z,6.50
2022-08-31T04:58:09.848Z,6.70
2022-08-31T05:00:38.421Z,6.47
2022-08-31T05:03:08.145Z,6.03
2022-08-31T05:05:39.252Z,7.73
2022-08-31T05:08:07.847Z,6.23
2022-08-31T05:10:36.273Z,7.37
2022-08-31T05:13:04.565Z,6.90
2022-08-31T05:15:33.150Z,6.43
2022-08-31T05:18:01.894Z,6.20
2022-08-31T05:20:31.593Z,6.10
2022-08-31T05:22:59.906Z,6.43
2022-08-31T05:25:28.665Z,6.83
2022-08-31T05:27:56.978Z,6.30
2022-08-31T05:30:25.505Z,5.17
2022-08-31T05:32:53.806Z,5.67
2022-08-31T05:35:22.204Z,5.60
2022-08-31T05:37:53.016Z,5.30
2022-08-31T05:40:21.353Z,4.47
2022-08-31T05:42:49.677Z,4.33
2022-08-31T05:45:19.058Z,4.67
2022-08-31T05:47:47.456Z,4.70
2022-08-31T05:50:15.723Z,5.10
2022-08-31T05:52:44.227Z,4.50
2022-08-31T05:55:13.841Z,5.10
2022-08-31T05:57:42.191Z,4.87
2022-08-31T06:00:11.534Z,4.50
2022-08-31T06:02:40.429Z,5.53
2022-08-31T06:05:09.363Z,4.83
2022-08-31T06:07:37.774Z,6.17
2022-08-31T06:10:06.887Z,5.73
2022-08-31T06:12:39.295Z,6.07
2022-08-31T06:15:09.032Z,6.50
2022-08-31T06:17:37.559Z,5.57
2022-08-31T06:20:06.834Z,6.40
2022-08-31T06:22:35.932Z,5.87
2022-08-31T06:25:06.191Z,5.93
2022-08-31T06:27:35.286Z,6.13
2022-08-31T06:30:07.124Z,7.63
2022-08-31T06:32:35.567Z,7.17
2022-08-31T06:35:04.008Z,6.70
2022-08-31T06:37:32.204Z,6.30
2022-08-31T06:40:01.061Z,5.50
2022-08-31T06:42:29.710Z,5.53
2022-08-31T06:44:57.916Z,5.30
2022-08-31T06:47:27.488Z,5.40
2022-08-31T06:49:57.338Z,13.57
2022-08-31T06:52:25.658Z,5.33
2022-08-31T06:54:53.934Z,4.73
2022-08-31T06:57:22.789Z,4.70
2022-08-31T06:59:53.794Z,4.40
2022-08-31T07:02:22.062Z,4.10
2022-08-31T07:04:51.879Z,4.30
2022-08-31T07:07:20.160Z,4.83
2022-08-31T07:09:48.356Z,4.80
2022-08-31T07:12:16.631Z,5.07
2022-08-31T07:14:54.698Z,5.13
2022-08-31T07:17:23.692Z,4.93
2022-08-31T07:19:53.305Z,5.60
2022-08-31T07:22:21.538Z,4.60
2022-08-31T07:24:49.891Z,5.00
2022-08-31T07:27:18.603Z,5.03
2022-08-31T07:29:47.438Z,5.37
2022-08-31T07:32:16.076Z,5.17
2022-08-31T07:34:44.856Z,4.53
2022-08-31T07:37:46.349Z,4.90
2022-08-31T07:40:31.726Z,4.90
2022-08-31T07:43:04.602Z,4.40
2022-08-31T07:45:35.850Z,4.57
2022-08-31T07:48:06.440Z,4.10
2022-08-31T07:50:34.600Z,4.20
2022-08-31T07:53:08.627Z,4.13
2022-08-31T07:55:37.832Z,3.50
2022-08-31T07:58:05.938Z,3.60
2022-08-31T08:00:36.170Z,4.43
2022-08-31T08:03:08.312Z,3.90
2022-08-31T08:05:38.837Z,3.50
2022-08-31T08:08:13.556Z,4.13
2022-08-31T08:10:52.565Z,4.20
2022-08-31T08:13:23.235Z,4.07
2022-08-31T08:15:52.227Z,4.80
2022-08-31T08:18:20.861Z,4.10
2022-08-31T08:20:49.432Z,4.43
2022-08-31T08:23:28.440Z,4.57
2022-08-31T08:25:57.738Z,4.03
2022-08-31T08:28:42.861Z,4.47
2022-08-31T08:31:13.547Z,4.60
2022-08-31T08:33:41.691Z,4.30
2022-08-31T08:36:09.977Z,4.10
2022-08-31T08:38:41.189Z,3.90
2022-08-31T08:41:12.275Z,4.63
2022-08-31T08:43:43.922Z,4.70
2022-08-31T08:46:33.618Z,4.37
2022-08-31T08:49:04.325Z,5.17
2022-08-31T08:51:35.210Z,4.30
2022-08-31T08:54:06.468Z,4.40
2022-08-31T08:56:42.178Z,4.27
2022-08-31T08:59:15.961Z,4.27
2022-08-31T09:01:47.976Z,3.97
2022-08-31T09:04:23.302Z,4.17
2022-08-31T09:06:54.832Z,4.30
2022-08-31T09:09:33.013Z,3.90
2022-08-31T09:12:15.136Z,4.43
2022-08-31T09:14:59.883Z,3.70
2022-08-31T09:17:42.993Z,4.10
2022-08-31T09:20:13.265Z,4.27
2022-08-31T09:22:47.210Z,3.30
2022-08-31T09:25:19.219Z,3.97
2022-08-31T09:27:57.334Z,3.87
2022-08-31T09:30:41.845Z,3.43
2022-08-31T09:33:18.037Z,3.80
2022-08-31T09:35:46.681Z,3.37
2022-08-31T09:38:28.218Z,3.30
2022-08-31T09:40:58.019Z,2.90
2022-08-31T09:43:35.231Z,3.90
2022-08-31T09:46:06.065Z,2.60
2022-08-31T09:48:51.567Z,3.00
2022-08-31T09:51:25.643Z,2.70
2022-08-31T09:54:12.200Z,2.90
2022-08-31T09:56:55.539Z,3.17
2022-08-31T09:59:31.384Z,2.70
2022-08-31T10:02:01.319Z,2.87
2022-08-31T10:04:32.543Z,2.50
2022-08-31T10:07:09.560Z,2.83
2022-08-31T10:09:40.140Z,2.92
2022-08-31T10:12:12.810Z,2.90
2022-08-31T10:14:43.806Z,3.07
2022-08-31T10:17:19.907Z,2.60
2022-08-31T10:19:53.635Z,3.03
2022-08-31T10:22:28.440Z,2.72
2022-08-31T10:25:04.667Z,2.30
2022-08-31T10:27:38.679Z,2.13
2022-08-31T10:30:08.627Z,2.08
2022-08-31T10:32:38.855Z,1.80
2022-08-31T10:35:10.704Z,1.80
2022-08-31T10:37:49.275Z,2.00
2022-08-31T10:40:19.411Z,1.60
2022-08-31T10:42:57.884Z,2.10
2022-08-31T10:45:27.190Z,2.22
2022-08-31T10:47:56.053Z,1.90
2022-08-31T10:50:28.879Z,1.47
2022-08-31T10:53:03.023Z,2.00
2022-08-31T10:55:37.327Z,1.83
2022-08-31T10:58:12.871Z,2.03
2022-08-31T11:00:46.719Z,1.70
2022-08-31T11:03:18.393Z,1.67
2022-08-31T11:05:50.918Z,1.50
2022-08-31T11:08:35.354Z,1.38
2022-08-31T11:11:03.580Z,1.75
2022-08-31T11:14:00.656Z,1.40
2022-08-31T11:16:49.505Z,1.67
2022-08-31T11:19:31.609Z,1.65
2022-08-31T11:22:34.744Z,1.30
2022-08-31T11:25:19.709Z,1.58
2022-08-31T11:27:51.160Z,1.50
2022-08-31T11:30:24.615Z,1.60
2022-08-31T11:32:53.897Z,1.35
2022-08-31T11:35:57.358Z,1.50
2022-08-31T11:38:52.252Z,1.52
2022-08-31T11:41:46.676Z,1.63
2022-08-31T11:45:00.563Z,1.63
2022-08-31T11:47:43.395Z,1.58
2022-08-31T11:50:14.340Z,1.60
2022-08-31T11:52:45.267Z,1.52
2022-08-31T11:55:28.458Z,1.70
2022-08-31T11:58:21.066Z,1.48
2022-08-31T12:00:58.524Z,1.77
2022-08-31T12:03:39.727Z,2.17
2022-08-31T12:06:09.126Z,2.03
2022-08-31T12:08:47.160Z,2.08
2022-08-31T12:11:17.083Z,1.83
2022-08-31T12:13:49.072Z,2.20
2022-08-31T12:16:30.222Z,2.05
2022-08-31T12:19:40.883Z,1.98
2022-08-31T12:22:33.102Z,1.90
2022-08-31T12:25:08.914Z,1.70
2022-08-31T12:27:40.160Z,1.48
2022-08-31T12:30:14.394Z,1.50
2022-08-31T12:32:43.070Z,2.42
2022-08-31T12:35:15.596Z,1.42
2022-08-31T12:37:44.058Z,1.27
2022-08-31T12:40:17.877Z,1.95
2022-08-31T12:43:07.569Z,1.30
2022-08-31T12:46:08.924Z,1.50
2022-08-31T12:48:55.426Z,1.40
2022-08-31T12:51:34.010Z,1.60
2022-08-31T12:54:21.632Z,1.50
2022-08-31T12:56:52.486Z,1.33
2022-08-31T12:59:36.404Z,1.50
2022-08-31T13:02:16.643Z,1.50
2022-08-31T13:04:47.297Z,1.40
2022-08-31T13:07:20.016Z,1.60
2022-08-31T13:09:48.284Z,1.60
2022-08-31T13:12:23.543Z,1.40
2022-08-31T13:14:51.706Z,1.60
2022-08-31T13:17:22.051Z,1.70
2022-08-31T13:19:52.079Z,1.58
2022-08-31T13:22:29.021Z,1.50
2022-08-31T13:24:58.908Z,1.70
2022-08-31T13:27:27.801Z,1.63
2022-08-31T13:30:03.548Z,1.52
2022-08-31T13:32:34.927Z,1.50
2022-08-31T13:35:04.693Z,1.55
2022-08-31T13:37:39.568Z,1.42
2022-08-31T13:40:09.799Z,1.45
2022-08-31T13:42:41.444Z,1.30
2022-08-31T13:45:26.660Z,1.35
2022-08-31T13:47:58.070Z,1.30
2022-08-31T13:50:33.116Z,1.50
2022-08-31T13:53:25.839Z,1.55
2022-08-31T13:55:53.326Z,1.50
2022-08-31T13:58:27.547Z,1.52
2022-08-31T14:00:58.955Z,1.55
2022-08-31T14:03:35.101Z,2.13
2022-08-31T14:06:24.157Z,1.50
2022-08-31T14:08:56.471Z,1.50
2022-08-31T14:11:28.729Z,1.40
2022-08-31T14:13:57.313Z,1.40
2022-08-31T14:16:30.655Z,1.63
2022-08-31T14:18:58.927Z,1.50
2022-08-31T14:21:29.062Z,1.48
2022-08-31T14:24:01.549Z,1.77
2022-08-31T14:26:33.994Z,1.80
2022-08-31T14:29:03.919Z,1.50
2022-08-31T14:31:34.018Z,1.90
2022-08-31T14:34:20.381Z,1.65
2022-08-31T14:36:52.906Z,1.40
2022-08-31T14:39:24.453Z,1.52
2022-08-31T14:41:53.120Z,1.58
2022-08-31T14:44:22.923Z,1.70
2022-08-31T14:46:51.214Z,1.40
2022-08-31T14:49:19.527Z,1.42
2022-08-31T14:51:47.797Z,1.67
2022-08-31T14:54:17.289Z,1.38
2022-08-31T14:56:50.338Z,1.60
2022-08-31T14:59:21.632Z,1.40
2022-08-31T15:01:50.803Z,1.60
2022-08-31T15:04:20.826Z,1.52
2022-08-31T15:06:51.382Z,1.45
2022-08-31T15:09:19.576Z,1.98
2022-08-31T15:11:51.414Z,1.45
2022-08-31T15:14:19.721Z,1.75
2022-08-31T15:16:48.895Z,1.50
2022-08-31T15:19:17.732Z,1.40
2022-08-31T15:21:52.857Z,1.50
2022-08-31T15:24:31.299Z,1.50
2022-08-31T15:27:01.587Z,1.60
2022-08-31T15:29:30.660Z,2.00
2022-08-31T15:31:59.972Z,1.73
2022-08-31T15:34:29.639Z,1.40
2022-08-31T15:36:58.995Z,1.70
2022-08-31T15:39:28.204Z,1.38
2022-08-31T15:41:57.638Z,1.40
2022-08-31T15:44:27.347Z,1.60
2022-08-31T15:47:24.571Z,1.50
2022-08-31T15:49:53.131Z,1.75
2022-08-31T15:52:21.391Z,1.80
2022-08-31T15:54:50.490Z,1.75
2022-08-31T15:57:19.251Z,1.50
2022-08-31T15:59:50.084Z,1.42
2022-08-31T16:02:20.276Z,1.55
2022-08-31T16:04:50.698Z,1.40
2022-08-31T16:07:19.146Z,1.50
2022-08-31T16:09:47.389Z,1.50
2022-08-31T16:12:15.788Z,1.52
2022-08-31T16:14:45.550Z,1.55
2022-08-31T16:17:20.043Z,1.42
2022-08-31T16:19:48.296Z,1.40
2022-08-31T16:22:16.710Z,1.77
2022-08-31T16:24:46.959Z,1.60
2022-08-31T16:27:16.310Z,1.65
2022-08-31T16:29:45.923Z,1.33
2022-08-31T16:32:15.618Z,1.50
2022-08-31T16:34:43.881Z,1.40
2022-08-31T16:37:12.092Z,1.50
2022-08-31T16:39:41.991Z,1.60
2022-08-31T16:42:11.396Z,2.03
2022-08-31T16:44:39.629Z,2.20
2022-08-31T16:47:08.491Z,1.90
2022-08-31T16:49:38.887Z,2.22
2022-08-31T16:52:10.026Z,1.87
2022-08-31T16:54:41.293Z,2.00
2022-08-31T16:57:10.254Z,1.70
2022-08-31T16:59:38.454Z,2.00
2022-08-31T17:02:06.880Z,1.80
2022-08-31T17:04:51.556Z,1.77
2022-08-31T17:07:23.847Z,1.57
2022-08-31T17:09:52.557Z,1.88
2022-08-31T17:12:21.871Z,2.10
2022-08-31T17:14:52.831Z,1.67
2022-08-31T17:17:22.710Z,1.93
2022-08-31T17:19:52.271Z,1.90
2022-08-31T17:22:29.920Z,2.00
2022-08-31T17:25:03.822Z,1.97
2022-08-31T17:27:33.523Z,1.87
2022-08-31T17:30:05.387Z,1.87
2022-08-31T17:32:36.612Z,1.70
2022-08-31T17:35:09.084Z,1.90
2022-08-31T17:37:41.260Z,1.90
2022-08-31T17:40:14.084Z,1.40
2022-08-31T17:42:42.400Z,1.77
2022-08-31T17:45:11.664Z,2.03
2022-08-31T17:47:40.163Z,1.67
2022-08-31T17:50:09.121Z,2.07
2022-08-31T17:52:38.866Z,1.60
2022-08-31T17:55:07.865Z,1.83
2022-08-31T17:57:36.110Z,1.57
2022-08-31T18:00:06.895Z,1.93
2022-08-31T18:02:35.157Z,1.73
2022-08-31T18:05:03.669Z,1.80
2022-08-31T18:07:39.280Z,1.80
2022-08-31T18:10:08.099Z,1.80
2022-08-31T18:12:41.301Z,1.60
2022-08-31T18:15:10.902Z,2.37
2022-08-31T18:17:39.142Z,1.83
2022-08-31T18:20:10.749Z,2.10
2022-08-31T18:22:41.123Z,2.30
2022-08-31T18:25:10.254Z,2.70
2022-08-31T18:27:38.617Z,2.30
2022-08-31T18:30:07.854Z,2.20
2022-08-31T18:32:36.377Z,2.50
2022-08-31T18:35:06.018Z,2.60
2022-08-31T18:37:34.954Z,2.23
2022-08-31T18:40:22.757Z,2.50
2022-08-31T18:43:08.356Z,2.17
2022-08-31T18:45:39.684Z,2.10
2022-08-31T18:48:24.265Z,2.50
2022-08-31T18:50:53.884Z,2.10
2022-08-31T18:53:26.836Z,2.13
2022-08-31T18:56:00.322Z,1.90
2022-08-31T18:58:28.878Z,2.20
2022-08-31T19:00:57.782Z,2.10
2022-08-31T19:03:27.611Z,2.40
2022-08-31T19:05:56.732Z,2.53
2022-08-31T19:08:26.160Z,1.93
2022-08-31T19:10:56.433Z,2.10
2022-08-31T19:13:28.887Z,2.20
2022-08-31T19:16:01.285Z,2.20
2022-08-31T19:18:32.069Z,2.10
2022-08-31T19:21:00.379Z,2.00
2022-08-31T19:23:29.407Z,2.13
2022-08-31T19:25:57.634Z,1.90
2022-08-31T19:28:27.359Z,2.17
2022-08-31T19:30:55.553Z,1.90
2022-08-31T19:33:24.885Z,2.17
2022-08-31T19:35:59.538Z,1.90
2022-08-31T19:38:31.831Z,2.00
2022-08-31T19:41:00.850Z,2.23
2022-08-31T19:43:53.623Z,2.20
2022-08-31T19:46:25.430Z,2.00
2022-08-31T19:48:53.712Z,2.20
2022-08-31T19:51:22.895Z,2.20
2022-08-31T19:53:51.266Z,2.33
2022-08-31T19:56:21.062Z,2.37
2022-08-31T19:58:51.674Z,2.47
2022-08-31T20:01:25.429Z,2.43
2022-08-31T20:03:54.153Z,2.17
2022-08-31T20:06:23.172Z,2.00
2022-08-31T20:08:51.389Z,2.17
2022-08-31T20:11:22.068Z,2.20
2022-08-31T20:13:51.934Z,2.00
2022-08-31T20:16:24.392Z,2.07
2022-08-31T20:19:04.125Z,2.40
2022-08-31T20:21:35.093Z,2.20
2022-08-31T20:24:04.868Z,2.70
2022-08-31T20:26:36.130Z,2.87
2022-08-31T20:29:09.330Z,2.20
2022-08-31T20:31:38.884Z,2.57
2022-08-31T20:34:07.482Z,2.20
2022-08-31T20:36:39.265Z,2.43
2022-08-31T20:39:08.240Z,2.50
2022-08-31T20:41:37.286Z,2.67
2022-08-31T20:44:10.580Z,2.50
2022-08-31T20:47:00.217Z,2.40
2022-08-31T20:49:28.746Z,2.47
2022-08-31T20:51:58.482Z,2.83
2022-08-31T20:54:31.097Z,2.30
2022-08-31T20:57:00.246Z,2.27
2022-08-31T20:59:29.807Z,2.30
2022-08-31T21:01:59.874Z,2.27
2022-08-31T21:04:29.131Z,2.90
2022-08-31T21:06:58.030Z,2.67
2022-08-31T21:09:26.647Z,2.93
2022-08-31T21:11:56.588Z,2.90
2022-08-31T21:14:27.179Z,3.53
2022-08-31T21:16:57.045Z,2.90
2022-08-31T21:19:25.340Z,2.70
2022-08-31T21:21:56.506Z,2.93
2022-08-31T21:24:24.651Z,2.90
2022-08-31T21:26:59.478Z,2.73
2022-08-31T21:29:28.265Z,2.60
2022-08-31T21:32:03.341Z,3.07
2022-08-31T21:34:32.371Z,2.80
2022-08-31T21:37:00.712Z,2.80
2022-08-31T21:39:28.913Z,2.63
2022-08-31T21:41:57.178Z,3.30
2022-08-31T21:44:25.556Z,2.73
2022-08-31T21:46:53.988Z,2.60
2022-08-31T21:49:23.653Z,2.70
2022-08-31T21:51:53.069Z,2.80
2022-08-31T21:54:22.134Z,2.90
2022-08-31T21:56:51.583Z,2.40
2022-08-31T21:59:20.699Z,2.97
2022-08-31T22:01:51.205Z,3.00
2022-08-31T22:04:21.255Z,2.90
2022-08-31T22:06:51.095Z,3.57
2022-08-31T22:09:22.495Z,2.93
2022-08-31T22:11:55.108Z,2.23
2022-08-31T22:14:26.520Z,2.63
2022-08-31T22:16:54.852Z,2.83
2022-08-31T22:19:26.037Z,2.73
2022-08-31T22:21:57.338Z,2.33
2022-08-31T22:24:28.054Z,2.67
2022-08-31T22:26:58.089Z,2.60
2022-08-31T22:29:27.425Z,2.53
2022-08-31T22:31:57.850Z,2.70
2022-08-31T22:34:26.148Z,2.80
2022-08-31T22:36:56.343Z,2.70
2022-08-31T22:39:26.364Z,2.50
2022-08-31T22:41:54.545Z,2.57
2022-08-31T22:44:25.329Z,2.57
2022-08-31T22:46:54.094Z,2.30
2022-08-31T22:49:22.337Z,2.30
2022-08-31T22:51:50.549Z,2.47
2022-08-31T22:54:20.880Z,2.53
2022-08-31T22:56:49.391Z,2.37
2022-08-31T22:59:21.032Z,2.50
2022-08-31T23:01:52.388Z,2.77
2022-08-31T23:04:21.354Z,2.43
2022-08-31T23:06:51.904Z,2.73
2022-08-31T23:09:22.381Z,2.47
2022-08-31T23:11:51.609Z,2.27
2022-08-31T23:14:21.364Z,2.60
2022-08-31T23:16:54.521Z,2.50
2022-08-31T23:19:25.880Z,2.40
2022-08-31T23:21:56.904Z,2.47
2022-08-31T23:24:29.181Z,2.80
2022-08-31T23:27:03.896Z,3.07
2022-08-31T23:29:34.721Z,2.70
2022-08-31T23:32:04.387Z,2.97
2022-08-31T23:34:36.481Z,2.40
2022-08-31T23:37:05.407Z,2.50
2022-08-31T23:39:35.103Z,2.87
2022-08-31T23:42:04.043Z,2.97
2022-08-31T23:44:32.234Z,2.60
2022-08-31T23:47:00.611Z,2.47
2022-08-31T23:49:28.806Z,2.60
2022-08-31T23:51:57.038Z,3.00
2022-08-31T23:54:25.232Z,2.73
2022-08-31T23:56:57.844Z,2.90
2022-08-31T23:59:26.321Z,2.50
